Time;durP1;ratioP1;P1;durP2;ratioP2;P2;SDS_P1;SDS_P2;PMS_P1;PMS_P2;Temp;Humidity;BMP_temperature;BMP_pressure;BME280_temperature;BME280_humidity;BME280_pressure;Samples;Min_cycle;Max_cycle;Signal;HPM_P1;HPM_P2
2021/12/17 00:07:01;;;;;;;12.75;5.82;;;;;;;-149.78;100.00;50598.56;5135027;27;20577;-73
2021/12/17 00:09:28;;;;;;;17.13;5.55;;;;;;;-149.78;100.00;50600.53;5116976;27;20050;-74
2021/12/17 00:11:54;;;;;;;13.23;5.85;;;;;;;-149.78;100.00;50616.19;5117002;27;20565;-74
2021/12/17 00:14:28;;;;;;;16.55;5.80;;;;;;;-149.78;100.00;50620.09;5135089;27;20118;-74
2021/12/17 00:17:01;;;;;;;11.07;5.05;;;;;;;-149.78;100.00;50592.72;5135069;27;20165;-74
2021/12/17 00:49:27;;;;;;;14.45;5.43;;;;;;;-149.78;100.00;50629.88;5113985;28;20081;-74
2021/12/17 00:54:29;;;;;;;14.18;5.57;;;;;;;-149.78;100.00;50594.66;5112771;28;20046;-74
2021/12/17 00:56:56;;;;;;;13.02;5.93;;;;;;;-149.78;100.00;50604.44;5112947;28;20035;-74
2021/12/17 00:59:23;;;;;;;13.43;5.55;;;;;;;-149.78;100.00;50624.00;5112969;28;20032;-74
2021/12/17 01:01:51;;;;;;;21.25;7.22;;;;;;;-149.78;100.00;50592.72;5114140;28;20038;-74
2021/12/17 01:04:17;;;;;;;12.27;5.70;;;;;;;-149.78;100.00;50612.25;5113979;28;20032;-74
2021/12/17 01:06:43;;;;;;;12.95;5.97;;;;;;;-149.78;100.00;50655.28;5112933;28;20034;-74
2021/12/17 01:09:12;;;;;;;15.43;5.88;;;;;;;-149.78;100.00;50639.66;5113800;28;20082;-74
2021/12/17 01:11:38;;;;;;;13.40;5.38;;;;;;;-149.78;100.00;50639.66;5112897;28;20055;-74
2021/12/17 01:14:04;;;;;;;16.15;6.20;;;;;;;-149.78;100.00;50620.09;5097844;28;20415;-74
2021/12/17 01:16:31;;;;;;;13.50;6.00;;;;;;;-149.78;100.00;50651.38;5099792;28;20444;-74
2021/12/17 01:40:54;;;;;;;12.75;5.57;;;;;;;-149.78;100.00;50604.44;5121376;27;20482;-74
2021/12/17 01:43:12;;;;;;;11.88;5.40;;;;;;;-149.78;100.00;50608.34;5138284;27;20438;-74
2021/12/17 01:45:40;;;;;;;10.63;5.28;;;;;;;-149.78;100.00;50647.47;5120055;27;20114;-74
2021/12/17 01:48:10;;;;;;;11.30;5.03;;;;;;;-149.78;100.00;50647.47;5120000;27;20084;-74
2021/12/17 02:02:01;;;;;;;12.60;5.00;;;;;;;-149.78;100.00;50614.22;5094395;28;20046;-74
2021/12/17 02:04:30;;;;;;;11.43;5.13;;;;;;;-149.78;100.00;50631.81;5094665;28;20035;-74
2021/12/17 02:06:57;;;;;;;15.27;5.80;;;;;;;-149.78;100.00;50635.72;5099401;27;20076;-74
2021/12/17 02:12:36;;;;;;;12.52;5.57;;;;;;;-149.78;100.00;50608.34;5098159;27;20047;-74
2021/12/17 02:29:02;;;;;;;10.63;5.10;;;;;;;-149.78;100.00;50612.25;5137037;27;20023;-74
2021/12/17 02:31:33;;;;;;;15.70;5.65;;;;;;;-149.78;100.00;50620.09;5137282;27;20039;-74
2021/12/17 02:34:26;;;;;;;14.02;5.78;;;;;;;-149.78;100.00;50622.03;5102731;27;20122;-74
2021/12/17 02:36:54;;;;;;;10.48;4.57;;;;;;;-149.78;100.00;50637.69;5118966;27;20439;-74
2021/12/17 02:47:17;;;;;;;14.70;6.20;;;;;;;-149.78;100.00;50655.28;5136957;27;20031;-74
2021/12/17 02:49:45;;;;;;;13.55;6.30;;;;;;;-149.78;100.00;50616.19;5118267;27;20371;-74
2021/12/17 02:52:12;;;;;;;12.50;5.30;;;;;;;-149.78;100.00;50639.66;5118471;27;20038;-74
2021/12/17 02:54:38;;;;;;;13.73;5.63;;;;;;;-149.78;100.00;50606.41;5118222;27;20416;-74
2021/12/17 02:57:06;;;;;;;14.85;6.00;;;;;;;-149.78;100.00;50624.00;5118275;27;20109;-74
2021/12/17 02:59:34;;;;;;;15.98;6.15;;;;;;;-149.78;100.00;50612.25;5118141;27;20049;-74
2021/12/17 03:02:03;;;;;;;16.50;5.22;;;;;;;-149.78;100.00;50608.34;5114700;27;20495;-74
2021/12/17 03:04:30;;;;;;;18.15;6.13;;;;;;;-149.78;100.00;50639.66;5115815;28;20030;-74
2021/12/17 03:06:57;;;;;;;16.27;6.80;;;;;;;-149.78;100.00;50635.72;5097364;28;20463;-74
2021/12/17 03:09:40;;;;;;;14.18;6.53;;;;;;;-149.78;100.00;50600.53;5097751;28;20046;-74
2021/12/17 03:12:15;;;;;;;16.55;6.47;;;;;;;-149.78;100.00;50624.00;5115679;28;20027;-74
2021/12/17 03:14:48;;;;;;;15.57;6.30;;;;;;;-149.78;100.00;50635.72;5115721;28;20050;-74
2021/12/17 03:17:22;;;;;;;13.45;6.00;;;;;;;-149.78;100.00;50635.72;5098742;28;20032;-74
2021/12/17 03:25:13;;;;;;;14.25;6.03;;;;;;;-149.78;100.00;50602.47;5136219;27;20039;-74
2021/12/17 03:27:39;;;;;;;11.00;5.32;;;;;;;-149.78;100.00;50620.09;5135082;27;20085;-74
2021/12/17 03:30:05;;;;;;;13.88;5.35;;;;;;;-149.78;100.00;50643.56;5135743;27;20059;-74
2021/12/17 03:32:31;;;;;;;14.35;4.90;;;;;;;-149.78;100.00;50616.19;5130945;27;20035;-74
2021/12/17 03:34:57;;;;;;;12.18;4.75;;;;;;;-149.78;100.00;50655.28;5117615;27;20460;-74
2021/12/17 03:37:23;;;;;;;12.88;5.15;;;;;;;-149.78;100.00;50631.81;5101988;27;20122;-74
2021/12/17 03:39:48;;;;;;;12.93;5.20;;;;;;;-149.78;100.00;50627.91;5135644;27;20039;-74
2021/12/17 03:42:15;;;;;;;14.13;5.72;;;;;;;-149.78;100.00;50612.25;5100588;27;20114;-74
2021/12/17 03:44:41;;;;;;;13.25;5.63;;;;;;;-149.78;100.00;50659.19;5135633;27;20385;-74
2021/12/17 03:47:07;;;;;;;14.75;6.07;;;;;;;-149.78;100.00;50620.09;5135459;27;20031;-74
2021/12/17 03:49:36;;;;;;;16.08;6.82;;;;;;;-149.78;100.00;50639.66;5118630;27;20046;-74
2021/12/17 03:52:05;;;;;;;16.85;7.13;;;;;;;-149.78;100.00;50618.13;5114795;28;20039;-74
2021/12/17 03:54:35;;;;;;;17.42;7.18;;;;;;;-149.78;100.00;50655.28;5112568;27;20027;-74
2021/12/17 03:57:02;;;;;;;21.88;6.75;;;;;;;-149.78;100.00;50624.00;5117190;27;20023;-74
2021/12/17 03:59:27;;;;;;;18.17;7.15;;;;;;;-149.78;100.00;50616.19;5113407;28;20092;-74
2021/12/17 04:01:53;;;;;;;18.25;6.95;;;;;;;-149.78;100.00;50624.00;5114705;28;20035;-74
2021/12/17 04:04:18;;;;;;;16.88;7.00;;;;;;;-149.78;100.00;50631.81;5125980;27;20035;-74
2021/12/17 04:06:50;;;;;;;18.75;6.97;;;;;;;-149.78;100.00;50663.13;5120278;27;20126;-74
2021/12/17 04:09:20;;;;;;;14.73;6.50;;;;;;;-149.78;100.00;50639.66;5155531;27;20097;-74
2021/12/17 04:11:46;;;;;;;15.63;5.85;;;;;;;-149.78;100.00;50678.75;5111101;27;20034;-74
2021/12/17 04:14:12;;;;;;;20.63;6.30;;;;;;;-149.78;100.00;50651.38;5099829;27;20039;-74
2021/12/17 04:16:38;;;;;;;12.80;5.43;;;;;;;-149.78;100.00;50631.81;5134959;27;20490;-74
2021/12/17 04:19:04;;;;;;;14.75;6.10;;;;;;;-149.78;100.00;50667.03;5099733;27;20482;-74
2021/12/17 04:21:30;;;;;;;14.93;5.95;;;;;;;-149.78;100.00;50659.19;5135487;27;20038;-74
2021/12/17 04:23:57;;;;;;;16.98;6.38;;;;;;;-149.78;100.00;50651.38;5116682;27;20035;-74
2021/12/17 04:26:24;;;;;;;18.95;6.28;;;;;;;-149.78;100.00;50631.81;5116378;27;20035;-74
2021/12/17 04:28:52;;;;;;;15.93;5.93;;;;;;;-149.78;100.00;50678.75;5099431;27;20039;-74
2021/12/17 04:31:21;;;;;;;15.25;6.45;;;;;;;-149.78;100.00;50651.38;5116401;27;20126;-74
2021/12/17 04:33:48;;;;;;;16.80;6.63;;;;;;;-149.78;100.00;50674.84;5134958;27;20031;-74
2021/12/17 04:36:20;;;;;;;19.50;7.18;;;;;;;-149.78;100.00;50641.59;5135409;27;20039;-75
2021/12/17 04:38:45;;;;;;;;;;;;;;;-149.78;100.00;50655.28;5118603;27;20031;-74
2021/12/17 04:44:02;;;;;;;15.95;7.30;;;;;;;-149.78;100.00;50682.66;5118432;27;20042;-74
2021/12/17 04:46:43;;;;;;;;;;;;;;;-149.78;100.00;50655.28;5134369;27;20027;-74
2021/12/17 04:57:29;;;;;;;16.52;6.43;;;;;;;-149.78;100.00;50663.13;5100239;28;20092;-74
2021/12/17 04:59:59;;;;;;;18.30;6.85;;;;;;;-149.78;100.00;50639.66;5115901;28;20032;-74
2021/12/17 05:02:25;;;;;;;14.80;5.88;;;;;;;-149.78;100.00;50639.66;5128803;28;20034;-74
2021/12/17 05:04:52;;;;;;;16.40;6.25;;;;;;;-149.78;100.00;50624.00;5118238;28;20034;-74
2021/12/17 05:07:17;;;;;;;15.07;6.00;;;;;;;-149.78;100.00;50618.13;5136017;27;20118;-74
2021/12/17 05:09:55;;;;;;;13.00;5.97;;;;;;;-149.78;100.00;50647.47;5099934;28;20118;-74
2021/12/17 05:20:44;;;;;;;14.55;6.35;;;;;;;-149.78;100.00;50608.34;5100754;28;20075;-74
2021/12/17 05:23:10;;;;;;;16.52;5.75;;;;;;;-149.78;100.00;50657.25;5118497;28;20035;-74
2021/12/17 05:25:36;;;;;;;12.73;5.53;;;;;;;-149.78;100.00;50639.66;5134711;28;20501;-75
2021/12/17 05:28:02;;;;;;;11.75;5.53;;;;;;;-149.78;100.00;50647.47;5135098;28;20035;-74
2021/12/17 05:30:29;;;;;;;17.10;5.97;;;;;;;-149.78;100.00;50616.19;5116946;28;20092;-74
2021/12/17 05:32:56;;;;;;;13.32;6.05;;;;;;;-149.78;100.00;50659.19;5083202;28;20405;-74
2021/12/17 05:35:22;;;;;;;15.70;5.88;;;;;;;-149.78;100.00;50639.66;5117239;28;20031;-74
2021/12/17 05:37:48;;;;;;;21.02;6.18;;;;;;;-149.78;100.00;50657.25;5117283;28;20024;-75
2021/12/17 05:40:14;;;;;;;14.40;5.95;;;;;;;-149.78;100.00;50635.72;5134664;28;20597;-74
2021/12/17 05:42:41;;;;;;;15.65;6.93;;;;;;;-149.78;100.00;50651.38;5100537;28;20038;-74
2021/12/17 05:45:21;;;;;;;18.67;6.50;;;;;;;-149.78;100.00;50635.72;5135839;28;20047;-74
2021/12/17 05:47:47;;;;;;;20.80;7.07;;;;;;;-149.78;100.00;50661.16;5101891;28;20038;-74
2021/12/17 05:50:13;;;;;;;14.88;6.55;;;;;;;-149.78;100.00;50643.56;5135445;27;20050;-74
2021/12/17 05:52:39;;;;;;;21.35;7.03;;;;;;;-149.78;100.00;50659.19;5134010;27;20402;-74
2021/12/17 05:55:05;;;;;;;15.27;6.60;;;;;;;-149.78;100.00;50643.56;5106552;27;20035;-74
2021/12/17 05:57:30;;;;;;;16.95;6.10;;;;;;;-149.78;100.00;50667.03;5129336;27;20031;-74
2021/12/17 05:59:56;;;;;;;16.88;6.63;;;;;;;-149.78;100.00;50616.19;5119075;27;20027;-74
2021/12/17 06:02:22;;;;;;;18.02;6.43;;;;;;;-149.78;100.00;50639.66;5115952;27;20061;-73
2021/12/17 06:04:47;;;;;;;16.70;6.95;;;;;;;-149.78;100.00;50655.28;5139752;27;20034;-74
2021/12/17 06:07:13;;;;;;;17.17;7.05;;;;;;;-149.78;100.00;50633.78;5127718;27;20030;-74
2021/12/17 06:09:39;;;;;;;22.00;7.18;;;;;;;-149.78;100.00;50639.66;5135274;27;20121;-74
2021/12/17 06:12:05;;;;;;;19.27;7.20;;;;;;;-149.78;100.00;50663.13;5089121;27;20039;-72
2021/12/17 06:14:31;;;;;;;21.10;6.60;;;;;;;-149.78;100.00;50643.56;5114683;27;20390;-74
2021/12/17 06:16:57;;;;;;;16.73;6.95;;;;;;;-149.78;100.00;50635.72;5102179;27;20031;-72
2021/12/17 06:19:23;;;;;;;19.85;8.00;;;;;;;-149.78;100.00;50631.81;5107552;27;20446;-76
2021/12/17 06:21:49;;;;;;;26.00;8.50;;;;;;;-149.78;100.00;50631.81;5113667;27;20059;-78
2021/12/17 06:24:15;;;;;;;22.17;8.73;;;;;;;-149.78;100.00;50643.56;5112236;27;20138;-79
2021/12/17 06:26:41;;;;;;;21.45;8.48;;;;;;;-149.78;100.00;50672.91;5116319;27;20062;-79
2021/12/17 06:29:06;;;;;;;19.38;7.35;;;;;;;-149.78;100.00;50661.16;5102154;27;20039;-79
2021/12/17 06:31:33;;;;;;;22.20;7.82;;;;;;;-149.78;100.00;50624.00;5088563;28;20050;-73
2021/12/17 06:33:58;;;;;;;18.40;7.03;;;;;;;-149.78;100.00;50667.03;5117003;27;20110;-74
2021/12/17 06:36:24;;;;;;;17.77;6.60;;;;;;;-149.78;100.00;50690.50;5108005;27;20474;-74
2021/12/17 06:38:50;;;;;;;18.98;7.22;;;;;;;-149.78;100.00;50682.66;5129954;27;20026;-74
2021/12/17 06:41:16;;;;;;;17.83;7.10;;;;;;;-149.78;100.00;50631.81;5133984;27;20030;-72
2021/12/17 06:43:43;;;;;;;19.35;6.82;;;;;;;-149.78;100.00;50635.72;5118219;27;20038;-72
2021/12/17 06:48:41;;;;;;;22.88;7.47;;;;;;;-149.78;100.00;50592.72;5135342;27;20029;-72
2021/12/17 07:10:14;;;;;;;18.90;8.00;;;;;;;-149.78;100.00;50655.28;5108563;27;20032;-73
2021/12/17 07:21:16;;;;;;;25.42;8.65;;;;;;;-149.78;100.00;50655.28;5150928;27;20067;-77
2021/12/17 07:34:09;;;;;;;28.25;9.27;;;;;;;-149.78;100.00;50624.00;5111247;27;20062;-73
2021/12/17 07:39:07;;;;;;;27.23;10.32;;;;;;;-149.78;100.00;50647.47;5138866;27;20031;-73
2021/12/17 07:41:32;;;;;;;51.75;18.50;;;;;;;-149.78;100.00;50624.00;5125083;27;20053;-73
2021/12/17 07:44:00;;;;;;;58.42;19.92;;;;;;;-149.78;100.00;50670.94;5135050;27;20027;-73
2021/12/17 07:46:26;;;;;;;57.95;20.27;;;;;;;-149.78;100.00;50686.59;5135283;27;20027;-73
2021/12/17 07:48:52;;;;;;;35.85;13.82;;;;;;;-149.78;100.00;50635.72;5099779;27;20046;-74
2021/12/17 07:51:20;;;;;;;25.20;11.07;;;;;;;-149.78;100.00;50631.81;5135209;27;20031;-73
2021/12/17 07:53:47;;;;;;;27.73;10.23;;;;;;;-149.78;100.00;50653.34;5096641;28;20032;-74
2021/12/17 07:56:17;;;;;;;27.52;10.02;;;;;;;-149.78;100.00;50639.66;5126393;27;20039;-73
2021/12/17 07:58:43;;;;;;;22.08;8.70;;;;;;;-149.78;100.00;50659.19;5134665;27;20030;-73
2021/12/17 08:01:10;;;;;;;23.75;9.60;;;;;;;-149.78;100.00;50645.50;5125249;27;20038;-69
2021/12/17 08:03:40;;;;;;;28.55;10.15;;;;;;;-149.78;100.00;50627.91;5099894;27;20134;-72
2021/12/17 08:06:07;;;;;;;29.77;11.25;;;;;;;-149.78;100.00;50678.75;5134788;27;20110;-73
2021/12/17 08:08:33;;;;;;;29.75;9.80;;;;;;;-149.78;100.00;50663.13;5140213;27;20033;-75
2021/12/17 08:10:59;;;;;;;30.63;9.57;;;;;;;-149.78;100.00;50620.09;5116421;27;20038;-73
2021/12/17 08:13:28;;;;;;;29.65;9.30;;;;;;;-149.78;100.00;50676.81;5110553;27;20126;-73
2021/12/17 08:24:24;;;;;;;28.23;11.40;;;;;;;-149.78;100.00;50667.03;5087512;27;20031;-69
2021/12/17 08:31:30;;;;;;;24.33;9.20;;;;;;;-149.78;100.00;50647.47;5148614;27;20497;-70
2021/12/17 08:33:57;;;;;;;29.40;10.13;;;;;;;-149.78;100.00;50676.81;5095547;28;20487;-70
2021/12/17 08:36:23;;;;;;;22.50;9.55;;;;;;;-149.78;100.00;50635.72;5114671;27;20501;-70
2021/12/17 08:38:50;;;;;;;26.88;9.18;;;;;;;-149.78;100.00;50667.03;5115365;27;20459;-70
2021/12/17 08:41:17;;;;;;;34.90;11.50;;;;;;;-149.78;100.00;50608.34;5099163;27;20514;-70
2021/12/17 08:43:43;;;;;;;48.00;16.17;;;;;;;-149.78;100.00;50667.03;5134292;27;20474;-70
2021/12/17 08:46:10;;;;;;;64.63;21.23;;;;;;;-149.78;100.00;50663.13;5116064;28;20447;-70
2021/12/17 08:48:37;;;;;;;32.15;11.75;;;;;;;-149.78;100.00;50678.75;5095604;28;20035;-70
2021/12/17 08:51:06;;;;;;;25.67;9.70;;;;;;;-149.78;100.00;50639.66;5114597;27;20035;-70
2021/12/17 08:53:32;;;;;;;32.13;10.38;;;;;;;-149.78;100.00;50659.19;5134026;27;20445;-70
2021/12/17 08:55:58;;;;;;;29.55;10.73;;;;;;;-149.78;100.00;50635.72;5115828;28;20501;-70
2021/12/17 08:58:24;;;;;;;34.28;11.63;;;;;;;-149.78;100.00;50625.94;5116435;28;20027;-71
2021/12/17 09:00:49;;;;;;;33.58;12.10;;;;;;;-149.78;100.00;50600.53;5133987;27;20478;-70
2021/12/17 09:03:15;;;;;;;27.63;10.80;;;;;;;-149.78;100.00;50641.59;5120911;27;20042;-70
2021/12/17 09:05:44;;;;;;;30.40;10.85;;;;;;;-149.78;100.00;50633.78;5139570;27;20125;-70
2021/12/17 09:08:10;;;;;;;24.77;9.55;;;;;;;-149.78;100.00;50655.28;5147599;27;20031;-71
2021/12/17 09:10:37;;;;;;;26.08;9.77;;;;;;;-149.78;100.00;50627.91;5133922;27;20023;-70
2021/12/17 09:13:04;;;;;;;24.75;9.48;;;;;;;-149.78;100.00;50610.31;5115682;28;20035;-69
2021/12/17 09:15:30;;;;;;;30.00;10.07;;;;;;;-149.78;100.00;50624.00;5134035;28;20058;-70
2021/12/17 09:17:56;;;;;;;25.70;10.75;;;;;;;-149.78;100.00;50647.47;5136075;27;20030;-71
2021/12/17 09:20:22;;;;;;;25.67;10.27;;;;;;;-149.78;100.00;50620.09;5134138;28;20039;-71
2021/12/17 09:22:48;;;;;;;29.73;10.60;;;;;;;-149.78;100.00;50657.25;5133984;28;20035;-71
2021/12/17 09:25:15;;;;;;;29.70;11.38;;;;;;;-149.78;100.00;50616.19;5098643;28;20046;-71
2021/12/17 09:27:41;;;;;;;23.83;9.85;;;;;;;-149.78;100.00;50610.31;5115362;28;20038;-71
2021/12/17 09:30:14;;;;;;;28.20;10.82;;;;;;;-149.78;100.00;50620.09;5133763;28;20043;-71
2021/12/17 09:32:40;;;;;;;28.58;11.27;;;;;;;-149.78;100.00;50596.63;5133349;28;20031;-71
2021/12/17 09:35:08;;;;;;;23.88;9.68;;;;;;;-149.78;100.00;50627.91;5117959;27;20063;-71
2021/12/17 09:37:34;;;;;;;27.10;9.60;;;;;;;-149.78;100.00;50620.09;5137831;27;20037;-71
2021/12/17 09:40:00;;;;;;;25.58;10.57;;;;;;;-149.78;100.00;50624.00;5119304;27;20358;-71
2021/12/17 09:42:27;;;;;;;30.25;9.15;;;;;;;-149.78;100.00;50620.09;5119555;27;20130;-71
2021/12/17 09:44:52;;;;;;;26.05;9.68;;;;;;;-149.78;100.00;50639.66;5119306;27;20039;-71
2021/12/17 09:47:18;;;;;;;23.38;8.90;;;;;;;-149.78;100.00;50624.00;5102213;27;20035;-71
2021/12/17 09:49:45;;;;;;;23.15;9.30;;;;;;;-149.78;100.00;50639.66;5137498;27;20126;-71
2021/12/17 09:52:11;;;;;;;25.92;9.60;;;;;;;-149.78;100.00;50649.44;5137606;27;20430;-71
2021/12/17 09:54:38;;;;;;;25.70;9.50;;;;;;;-149.78;100.00;50645.50;5137658;27;20035;-71
2021/12/17 09:57:04;;;;;;;24.27;9.63;;;;;;;-149.78;100.00;50639.66;5119109;27;20084;-71
2021/12/17 09:59:30;;;;;;;23.05;9.32;;;;;;;-149.78;100.00;50631.81;5137565;27;20032;-71
2021/12/17 10:01:56;;;;;;;29.10;10.13;;;;;;;-149.78;100.00;50624.00;5137268;27;20031;-71
2021/12/17 10:04:31;;;;;;;22.38;9.93;;;;;;;-149.78;100.00;50612.25;5098604;28;20074;-71
2021/12/17 10:07:17;;;;;;;24.45;10.50;;;;;;;-149.78;100.00;50651.38;5116475;27;20038;-71
2021/12/17 10:09:50;;;;;;;32.72;12.00;;;;;;;-149.78;100.00;50627.91;5137164;27;20035;-71
2021/12/17 10:12:21;;;;;;;45.97;16.98;;;;;;;-149.78;100.00;50604.44;5147317;27;20054;-72
2021/12/17 10:15:05;;;;;;;37.03;13.73;;;;;;;-149.78;100.00;50694.41;5154842;27;20472;-71
2021/12/17 10:17:32;;;;;;;28.00;11.45;;;;;;;-149.78;100.00;50635.72;5116745;28;20092;-71
2021/12/17 10:19:57;;;;;;;34.00;12.52;;;;;;;-149.78;100.00;50667.03;5126064;27;20387;-71
2021/12/17 10:22:25;;;;;;;30.20;13.05;;;;;;;-149.78;100.00;50620.09;5101622;27;20039;-72
2021/12/17 10:25:08;;;;;;;27.90;10.95;;;;;;;-149.78;100.00;50604.44;5137093;27;20038;-72
2021/12/17 10:27:36;;;;;;;25.60;12.55;;;;;;;-149.78;100.00;50655.28;5137026;27;20072;-72
2021/12/17 10:30:11;;;;;;;30.83;12.30;;;;;;;-149.78;100.00;50659.19;5136968;27;20050;-73
2021/12/17 10:32:41;;;;;;;24.40;11.05;;;;;;;-149.78;100.00;50661.16;5136779;27;20035;-72
2021/12/17 10:35:13;;;;;;;29.58;11.98;;;;;;;-149.78;100.00;50625.94;5118405;27;20027;-72
2021/12/17 10:37:45;;;;;;;27.92;11.57;;;;;;;-149.78;100.00;50651.38;5136927;27;20382;-72
2021/12/17 10:40:50;;;;;;;26.83;12.07;;;;;;;-149.78;100.00;50629.88;5136732;27;20023;-72
2021/12/17 10:46:00;;;;;;;28.17;10.63;;;;;;;-149.78;100.00;50637.69;5135431;27;20042;-72
2021/12/17 10:51:07;;;;;;;24.05;10.45;;;;;;;-149.78;100.00;50622.03;5135642;27;20156;-72
2021/12/17 10:53:32;;;;;;;24.70;10.60;;;;;;;-149.78;100.00;50635.72;5141159;27;20026;-75
2021/12/17 10:55:59;;;;;;;28.88;10.93;;;;;;;-149.78;100.00;50624.00;5111984;27;20695;-74
2021/12/17 10:58:26;;;;;;;25.02;10.73;;;;;;;-149.78;100.00;50627.91;5141753;27;20439;-71
2021/12/17 11:01:06;;;;;;;31.17;11.57;;;;;;;-149.78;100.00;50616.19;5125712;27;20035;-70
2021/12/17 11:03:41;;;;;;;32.83;11.70;;;;;;;-149.78;100.00;50616.19;5131311;27;20083;-74
2021/12/17 11:06:07;;;;;;;117.55;39.38;;;;;;;-149.78;100.00;50631.81;5113359;27;20039;-74
2021/12/17 11:08:37;;;;;;;42.65;16.05;;;;;;;-149.78;100.00;50620.09;5125383;27;20374;-74
2021/12/17 11:11:10;;;;;;;264.10;82.13;;;;;;;-149.78;100.00;50616.19;5103033;27;20488;-74
2021/12/17 11:13:37;;;;;;;64.93;23.13;;;;;;;-149.78;100.00;50635.72;5139124;27;20026;-74
2021/12/17 11:16:03;;;;;;;46.63;18.27;;;;;;;-149.78;100.00;50614.22;5107085;27;20419;-74
2021/12/17 11:18:29;;;;;;;51.78;17.77;;;;;;;-149.78;100.00;50624.00;5122800;27;20034;-74
2021/12/17 11:20:56;;;;;;;39.63;14.68;;;;;;;-149.78;100.00;50612.25;5094588;27;20536;-74
2021/12/17 11:23:23;;;;;;;135.02;50.75;;;;;;;-149.78;100.00;50631.81;5101573;27;20467;-74
2021/12/17 11:25:53;;;;;;;98.93;35.53;;;;;;;-149.78;100.00;50586.84;5136051;27;20022;-74
2021/12/17 11:28:20;;;;;;;58.17;24.38;;;;;;;-149.78;100.00;50610.31;5140825;27;20141;-74
2021/12/17 11:30:48;;;;;;;61.53;24.45;;;;;;;-149.78;100.00;50573.16;5135722;27;20039;-74
2021/12/17 11:33:14;;;;;;;56.60;24.65;;;;;;;-149.78;100.00;50620.09;5137369;27;20027;-74
2021/12/17 11:35:43;;;;;;;59.88;27.67;;;;;;;-149.78;100.00;50608.34;5117346;27;20038;-74
2021/12/17 11:38:33;;;;;;;44.78;19.45;;;;;;;-149.78;100.00;50606.41;5122559;27;20026;-74
2021/12/17 11:41:24;;;;;;;34.30;15.45;;;;;;;-149.78;100.00;50635.72;5121259;27;20856;-74
2021/12/17 11:43:59;;;;;;;40.22;15.07;;;;;;;-149.78;100.00;50600.53;5135614;27;20468;-73
2021/12/17 11:46:28;;;;;;;39.78;18.70;;;;;;;-149.78;100.00;50612.25;5116915;27;20034;-74
2021/12/17 11:48:58;;;;;;;40.75;14.95;;;;;;;-149.78;100.00;50643.56;5139497;27;20026;-74
2021/12/17 11:51:27;;;;;;;39.85;14.63;;;;;;;-149.78;100.00;50612.25;5110651;27;20125;-75
2021/12/17 11:54:04;;;;;;;39.15;15.88;;;;;;;-149.78;100.00;50596.63;5120162;27;20355;-73
2021/12/17 11:56:30;;;;;;;42.40;17.08;;;;;;;-149.78;100.00;50573.16;5140987;27;20533;-74
2021/12/17 11:58:56;;;;;;;43.83;17.63;;;;;;;-149.78;100.00;50612.25;5144340;27;20118;-74
2021/12/17 12:01:48;;;;;;;38.65;16.40;;;;;;;-149.78;100.00;50579.00;5150820;27;20031;-74
2021/12/17 12:04:32;;;;;;;39.97;15.15;;;;;;;-149.78;100.00;50604.44;5129245;27;20102;-74
2021/12/17 12:07:22;;;;;;;34.03;15.07;;;;;;;-149.78;100.00;50618.13;5114353;28;20085;-74
2021/12/17 12:10:12;;;;;;;36.58;15.30;;;;;;;-149.78;100.00;50604.44;5114267;27;20066;-73
2021/12/17 12:12:38;;;;;;;42.83;15.30;;;;;;;-149.78;100.00;50620.09;5134902;27;20027;-74
2021/12/17 12:15:34;;;;;;;40.40;16.50;;;;;;;-149.78;100.00;50602.47;5146411;27;20489;-74
2021/12/17 12:18:09;;;;;;;41.63;16.55;;;;;;;-149.78;100.00;50616.19;5106924;27;20118;-74
2021/12/17 12:23:37;;;;;;;41.40;17.55;;;;;;;-149.78;100.00;50624.00;5144297;27;20042;-74
2021/12/17 12:26:07;;;;;;;45.65;18.05;;;;;;;-149.78;100.00;50616.19;5132250;27;20027;-71
2021/12/17 12:28:45;;;;;;;38.63;16.52;;;;;;;-149.78;100.00;50635.72;5133470;27;20080;-73
2021/12/17 12:31:17;;;;;;;43.65;17.58;;;;;;;-149.78;100.00;50596.63;5136350;27;20053;-73
2021/12/17 12:34:07;;;;;;;39.42;17.45;;;;;;;-149.78;100.00;50596.63;5131044;27;20122;-73
2021/12/17 12:36:56;;;;;;;40.28;17.42;;;;;;;-149.78;100.00;50584.88;5118343;27;20029;-73
2021/12/17 12:39:29;;;;;;;49.38;17.48;;;;;;;-149.78;100.00;50588.78;5132366;27;20091;-73
2021/12/17 12:41:55;;;;;;;49.63;18.20;;;;;;;-149.78;100.00;50569.22;5123771;27;20035;-73
2021/12/17 12:44:39;;;;;;;41.70;17.35;;;;;;;-149.78;100.00;50604.44;5119316;27;20027;-73
2021/12/17 12:47:05;;;;;;;46.20;17.85;;;;;;;-149.78;100.00;50596.63;5133245;27;20024;-73
2021/12/17 12:49:45;;;;;;;41.40;16.92;;;;;;;-149.78;100.00;50592.72;5124698;27;20033;-73
2021/12/17 12:52:29;;;;;;;42.85;18.35;;;;;;;-149.78;100.00;50549.69;5098693;27;20037;-73
2021/12/17 12:55:02;;;;;;;44.55;19.05;;;;;;;-149.78;100.00;50612.25;5134628;27;20035;-73
2021/12/17 12:57:39;;;;;;;50.72;19.15;;;;;;;-149.78;100.00;50596.63;5137341;27;20023;-73
2021/12/17 13:00:11;;;;;;;46.40;19.30;;;;;;;-149.78;100.00;50598.56;5144952;27;20050;-73
2021/12/17 13:02:38;;;;;;;42.20;17.83;;;;;;;-149.78;100.00;50596.63;5139031;27;20023;-73
2021/12/17 13:05:07;;;;;;;48.45;19.88;;;;;;;-149.78;100.00;50584.88;5136147;27;20107;-73
2021/12/17 13:07:54;;;;;;;48.88;20.48;;;;;;;-149.78;100.00;50612.25;5140338;27;20110;-73
2021/12/17 13:10:22;;;;;;;50.35;20.15;;;;;;;-149.78;100.00;50604.44;5108902;27;20034;-72
2021/12/17 13:14:04;;;;;;;61.50;23.10;;;;;;;-149.78;100.00;50596.63;5138448;27;20034;-73
2021/12/17 13:16:24;;;;;;;54.63;22.23;;;;;;;-149.78;100.00;50612.25;5119146;27;20046;-73
2021/12/17 13:22:00;;;;;;;56.75;23.88;;;;;;;-149.78;100.00;50549.69;5140740;27;20077;-73
2021/12/17 13:24:29;;;;;;;64.57;26.10;;;;;;;-149.78;100.00;50571.19;5151640;27;20134;-74
2021/12/17 13:26:58;;;;;;;62.58;23.88;;;;;;;-149.78;100.00;50559.47;5135058;27;20054;-73
2021/12/17 13:29:43;;;;;;;57.70;23.23;;;;;;;-149.78;100.00;50608.34;5124161;27;20467;-73
2021/12/17 13:32:14;;;;;;;50.58;21.35;;;;;;;-149.78;100.00;50580.97;5145229;27;20027;-75
2021/12/17 13:34:41;;;;;;;48.03;20.83;;;;;;;-149.78;100.00;50573.16;5139269;27;20071;-73
2021/12/17 13:37:18;;;;;;;54.53;20.42;;;;;;;-149.78;100.00;50579.00;5141293;27;20031;-70
2021/12/17 13:39:55;;;;;;;49.95;22.00;;;;;;;-149.78;100.00;50580.97;5144313;27;20031;-70
2021/12/17 13:42:27;;;;;;;52.65;21.73;;;;;;;-149.78;100.00;50565.31;5141693;27;20027;-70
2021/12/17 13:44:53;;;;;;;52.05;20.50;;;;;;;-149.78;100.00;50592.72;5143755;27;20390;-70
2021/12/17 13:47:33;;;;;;;62.80;23.55;;;;;;;-149.78;100.00;50588.78;5139725;27;20027;-69
2021/12/17 13:50:26;;;;;;;60.78;22.02;;;;;;;-149.78;100.00;50592.72;5122711;27;20034;-69
2021/12/17 13:53:00;;;;;;;48.75;20.02;;;;;;;-149.78;100.00;50596.63;5115309;27;20054;-71
2021/12/17 13:55:38;;;;;;;56.42;21.05;;;;;;;-149.78;100.00;50569.22;5124017;27;20035;-72
2021/12/17 13:58:12;;;;;;;64.22;22.40;;;;;;;-149.78;100.00;50577.06;5138750;27;20019;-72
2021/12/17 14:00:40;;;;;;;60.40;21.45;;;;;;;-149.78;100.00;50561.41;5142764;27;20378;-71
2021/12/17 14:03:09;;;;;;;72.07;23.23;;;;;;;-149.78;100.00;50577.06;5130537;27;20545;-71
2021/12/17 14:05:45;;;;;;;66.70;21.38;;;;;;;-149.78;100.00;50604.44;5142586;27;20035;-70
2021/12/17 14:08:13;;;;;;;67.50;22.13;;;;;;;-149.78;100.00;50573.16;5134670;27;20049;-71
2021/12/17 14:10:41;;;;;;;57.45;21.02;;;;;;;-149.78;100.00;50592.72;5151781;27;20027;-71
2021/12/17 14:13:20;;;;;;;45.25;18.77;;;;;;;-149.78;100.00;50592.72;5103499;27;20031;-71
2021/12/17 14:15:47;;;;;;;45.38;18.52;;;;;;;-149.78;100.00;50584.88;5114695;27;20023;-72
2021/12/17 14:18:24;;;;;;;49.55;18.95;;;;;;;-149.78;100.00;50559.47;5148583;27;20067;-72
2021/12/17 14:20:52;;;;;;;47.22;18.13;;;;;;;-149.78;100.00;50565.31;5140583;27;20027;-72